Terminal Aerodrome Forecast
Issued by NWS

Home | Current Version | Previous Version | Graphics & Text | Print | Product List | Glossary On
Versions: 1 2 3 4 5 6 7 8 9 10 11 12 13 14 15 16 17 18
189
FTUS43 KGRB 221142
TAFMTW
TAF
KMTW 221142Z 2212/2312 18008G17KT P6SM -SHRA BKN070
     FM221400 21010G19KT P6SM SCT040 BKN250
      TEMPO 2218/2221 -SHRA BKN040
     FM222300 33005KT 6SM -SHRA SCT030 BKN045
      TEMPO 2301/2304 3SM +TSRA BKN020CB
     FM230400 35004KT 5SM BR SCT020 BKN070=

USA.gov is the U.S. government's official web portal to all federal, state and local government web resources and services.